sensor_id;sensor_type;location;lat;lon;timestamp;P1;durP1;ratioP1;P2;durP2;ratioP2
8421;SDS011;4248;48.196;10.924;2023-07-13T00:01:39;12.57;;;6.10;;
8421;SDS011;4248;48.196;10.924;2023-07-13T00:04:04;15.10;;;5.87;;
8421;SDS011;4248;48.196;10.924;2023-07-13T00:06:30;10.93;;;5.80;;
8421;SDS011;4248;48.196;10.924;2023-07-13T00:08:57;12.70;;;6.10;;
8421;SDS011;4248;48.196;10.924;2023-07-13T00:11:24;13.30;;;5.67;;
8421;SDS011;4248;48.196;10.924;2023-07-13T00:13:49;10.30;;;5.50;;
8421;SDS011;4248;48.196;10.924;2023-07-13T00:16:15;12.77;;;6.00;;
8421;SDS011;4248;48.196;10.924;2023-07-13T00:18:41;9.57;;;6.00;;
8421;SDS011;4248;48.196;10.924;2023-07-13T00:21:06;10.67;;;6.00;;
8421;SDS011;4248;48.196;10.924;2023-07-13T00:23:33;10.77;;;6.43;;
8421;SDS011;4248;48.196;10.924;2023-07-13T00:26:03;9.57;;;6.13;;
8421;SDS011;4248;48.196;10.924;2023-07-13T00:28:30;17.83;;;5.80;;
8421;SDS011;4248;48.196;10.924;2023-07-13T00:30:57;16.10;;;6.27;;
8421;SDS011;4248;48.196;10.924;2023-07-13T00:33:23;10.97;;;7.27;;
8421;SDS011;4248;48.196;10.924;2023-07-13T00:35:50;11.30;;;6.50;;
8421;SDS011;4248;48.196;10.924;2023-07-13T00:38:16;14.87;;;5.97;;
8421;SDS011;4248;48.196;10.924;2023-07-13T00:40:41;11.17;;;7.10;;
8421;SDS011;4248;48.196;10.924;2023-07-13T00:43:13;14.93;;;6.33;;
8421;SDS011;4248;48.196;10.924;2023-07-13T00:48:11;12.50;;;7.17;;
8421;SDS011;4248;48.196;10.924;2023-07-13T00:50:39;18.00;;;7.70;;
8421;SDS011;4248;48.196;10.924;2023-07-13T00:53:06;10.50;;;6.17;;
8421;SDS011;4248;48.196;10.924;2023-07-13T00:55:33;22.13;;;7.37;;
8421;SDS011;4248;48.196;10.924;2023-07-13T00:57:59;17.20;;;7.50;;
8421;SDS011;4248;48.196;10.924;2023-07-13T01:00:25;12.93;;;6.93;;
8421;SDS011;4248;48.196;10.924;2023-07-13T01:02:52;11.40;;;5.97;;
8421;SDS011;4248;48.196;10.924;2023-07-13T01:05:20;11.43;;;7.23;;
8421;SDS011;4248;48.196;10.924;2023-07-13T01:07:47;16.07;;;6.10;;
8421;SDS011;4248;48.196;10.924;2023-07-13T01:10:16;23.90;;;7.23;;
8421;SDS011;4248;48.196;10.924;2023-07-13T01:12:42;14.00;;;5.90;;
8421;SDS011;4248;48.196;10.924;2023-07-13T01:18:13;15.33;;;6.50;;
8421;SDS011;4248;48.196;10.924;2023-07-13T01:23:28;11.03;;;4.93;;
8421;SDS011;4248;48.196;10.924;2023-07-13T01:25:54;15.87;;;5.90;;
8421;SDS011;4248;48.196;10.924;2023-07-13T01:28:21;6.87;;;4.47;;
8421;SDS011;4248;48.196;10.924;2023-07-13T01:30:48;8.87;;;6.03;;
8421;SDS011;4248;48.196;10.924;2023-07-13T01:33:14;9.30;;;5.43;;
8421;SDS011;4248;48.196;10.924;2023-07-13T01:35:41;14.13;;;5.37;;
8421;SDS011;4248;48.196;10.924;2023-07-13T01:38:08;13.33;;;6.07;;
8421;SDS011;4248;48.196;10.924;2023-07-13T01:40:35;10.63;;;5.73;;
8421;SDS011;4248;48.196;10.924;2023-07-13T01:43:02;9.30;;;5.33;;
8421;SDS011;4248;48.196;10.924;2023-07-13T01:45:27;10.97;;;5.93;;
8421;SDS011;4248;48.196;10.924;2023-07-13T01:47:53;11.83;;;4.80;;
8421;SDS011;4248;48.196;10.924;2023-07-13T01:50:19;10.40;;;4.90;;
8421;SDS011;4248;48.196;10.924;2023-07-13T01:52:44;8.90;;;4.27;;
8421;SDS011;4248;48.196;10.924;2023-07-13T01:55:10;8.30;;;3.87;;
8421;SDS011;4248;48.196;10.924;2023-07-13T01:57:36;7.60;;;3.63;;
8421;SDS011;4248;48.196;10.924;2023-07-13T02:00:05;7.23;;;3.23;;
8421;SDS011;4248;48.196;10.924;2023-07-13T02:02:32;5.00;;;3.20;;
8421;SDS011;4248;48.196;10.924;2023-07-13T02:04:57;8.33;;;3.43;;
8421;SDS011;4248;48.196;10.924;2023-07-13T02:07:23;5.70;;;2.83;;
8421;SDS011;4248;48.196;10.924;2023-07-13T02:09:48;8.00;;;3.67;;
8421;SDS011;4248;48.196;10.924;2023-07-13T02:12:14;7.03;;;3.23;;
8421;SDS011;4248;48.196;10.924;2023-07-13T02:14:39;8.73;;;3.73;;
8421;SDS011;4248;48.196;10.924;2023-07-13T02:17:05;7.10;;;3.30;;
8421;SDS011;4248;48.196;10.924;2023-07-13T02:19:31;8.27;;;3.27;;
8421;SDS011;4248;48.196;10.924;2023-07-13T02:21:57;6.13;;;3.03;;
8421;SDS011;4248;48.196;10.924;2023-07-13T02:24:23;7.60;;;3.57;;
8421;SDS011;4248;48.196;10.924;2023-07-13T02:26:49;8.67;;;3.93;;
8421;SDS011;4248;48.196;10.924;2023-07-13T02:29:14;4.57;;;3.00;;
8421;SDS011;4248;48.196;10.924;2023-07-13T02:31:40;6.53;;;3.73;;
8421;SDS011;4248;48.196;10.924;2023-07-13T02:34:06;14.73;;;3.20;;
8421;SDS011;4248;48.196;10.924;2023-07-13T02:36:31;7.60;;;2.90;;
8421;SDS011;4248;48.196;10.924;2023-07-13T02:39:00;7.17;;;3.47;;
8421;SDS011;4248;48.196;10.924;2023-07-13T02:41:27;8.03;;;3.20;;
8421;SDS011;4248;48.196;10.924;2023-07-13T02:43:53;7.57;;;3.53;;
8421;SDS011;4248;48.196;10.924;2023-07-13T02:46:19;6.17;;;3.27;;
8421;SDS011;4248;48.196;10.924;2023-07-13T02:48:45;12.50;;;3.53;;
8421;SDS011;4248;48.196;10.924;2023-07-13T02:51:10;6.83;;;3.80;;
8421;SDS011;4248;48.196;10.924;2023-07-13T02:53:37;8.50;;;3.80;;
8421;SDS011;4248;48.196;10.924;2023-07-13T02:56:03;9.40;;;4.10;;
8421;SDS011;4248;48.196;10.924;2023-07-13T02:58:29;6.70;;;3.70;;
8421;SDS011;4248;48.196;10.924;2023-07-13T03:00:55;6.13;;;3.40;;
8421;SDS011;4248;48.196;10.924;2023-07-13T03:03:21;7.00;;;3.73;;
8421;SDS011;4248;48.196;10.924;2023-07-13T03:05:47;6.37;;;3.90;;
8421;SDS011;4248;48.196;10.924;2023-07-13T03:08:15;7.53;;;3.70;;
8421;SDS011;4248;48.196;10.924;2023-07-13T03:10:41;6.87;;;3.43;;
8421;SDS011;4248;48.196;10.924;2023-07-13T03:13:06;7.63;;;3.53;;
8421;SDS011;4248;48.196;10.924;2023-07-13T03:15:32;9.83;;;3.80;;
8421;SDS011;4248;48.196;10.924;2023-07-13T03:17:57;9.30;;;3.50;;
8421;SDS011;4248;48.196;10.924;2023-07-13T03:20:23;6.10;;;3.37;;
8421;SDS011;4248;48.196;10.924;2023-07-13T03:22:49;6.40;;;4.13;;
8421;SDS011;4248;48.196;10.924;2023-07-13T03:25:14;7.30;;;3.93;;
8421;SDS011;4248;48.196;10.924;2023-07-13T03:27:40;12.03;;;3.97;;
8421;SDS011;4248;48.196;10.924;2023-07-13T03:30:05;7.53;;;3.40;;
8421;SDS011;4248;48.196;10.924;2023-07-13T03:32:32;8.30;;;4.20;;
8421;SDS011;4248;48.196;10.924;2023-07-13T03:34:58;7.50;;;3.57;;
8421;SDS011;4248;48.196;10.924;2023-07-13T03:37:23;6.20;;;3.87;;
8421;SDS011;4248;48.196;10.924;2023-07-13T03:39:49;7.70;;;4.03;;
8421;SDS011;4248;48.196;10.924;2023-07-13T03:42:15;8.97;;;4.10;;
8421;SDS011;4248;48.196;10.924;2023-07-13T03:44:41;7.50;;;4.13;;
8421;SDS011;4248;48.196;10.924;2023-07-13T03:47:07;8.90;;;3.90;;
8421;SDS011;4248;48.196;10.924;2023-07-13T03:49:34;10.87;;;4.07;;
8421;SDS011;4248;48.196;10.924;2023-07-13T03:51:59;8.93;;;3.80;;
8421;SDS011;4248;48.196;10.924;2023-07-13T03:54:25;6.70;;;4.00;;
8421;SDS011;4248;48.196;10.924;2023-07-13T03:56:51;7.43;;;4.10;;
8421;SDS011;4248;48.196;10.924;2023-07-13T03:59:17;7.00;;;4.23;;
8421;SDS011;4248;48.196;10.924;2023-07-13T04:01:43;8.80;;;4.50;;
8421;SDS011;4248;48.196;10.924;2023-07-13T04:04:09;7.40;;;4.73;;
8421;SDS011;4248;48.196;10.924;2023-07-13T04:06:35;6.77;;;3.80;;
8421;SDS011;4248;48.196;10.924;2023-07-13T04:09:00;7.03;;;4.20;;
8421;SDS011;4248;48.196;10.924;2023-07-13T04:11:30;7.40;;;4.40;;
8421;SDS011;4248;48.196;10.924;2023-07-13T04:13:56;6.00;;;3.90;;
8421;SDS011;4248;48.196;10.924;2023-07-13T04:16:22;12.13;;;4.23;;
8421;SDS011;4248;48.196;10.924;2023-07-13T04:18:48;6.97;;;4.67;;
8421;SDS011;4248;48.196;10.924;2023-07-13T04:21:15;8.10;;;4.50;;
8421;SDS011;4248;48.196;10.924;2023-07-13T04:23:41;17.23;;;4.47;;
8421;SDS011;4248;48.196;10.924;2023-07-13T04:26:07;7.07;;;4.57;;
8421;SDS011;4248;48.196;10.924;2023-07-13T04:28:33;9.77;;;3.90;;
8421;SDS011;4248;48.196;10.924;2023-07-13T04:30:59;11.53;;;4.10;;
8421;SDS011;4248;48.196;10.924;2023-07-13T04:33:25;11.13;;;4.23;;
8421;SDS011;4248;48.196;10.924;2023-07-13T04:35:52;9.80;;;4.47;;
8421;SDS011;4248;48.196;10.924;2023-07-13T04:38:27;5.53;;;3.90;;
8421;SDS011;4248;48.196;10.924;2023-07-13T04:41:03;6.80;;;4.03;;
8421;SDS011;4248;48.196;10.924;2023-07-13T04:43:31;15.33;;;4.37;;
8421;SDS011;4248;48.196;10.924;2023-07-13T04:46:02;10.60;;;4.50;;
8421;SDS011;4248;48.196;10.924;2023-07-13T04:48:29;8.97;;;4.53;;
8421;SDS011;4248;48.196;10.924;2023-07-13T04:50:55;8.57;;;4.40;;
8421;SDS011;4248;48.196;10.924;2023-07-13T04:53:22;6.40;;;4.30;;
8421;SDS011;4248;48.196;10.924;2023-07-13T04:55:47;7.77;;;4.57;;
8421;SDS011;4248;48.196;10.924;2023-07-13T04:58:13;7.37;;;4.77;;
8421;SDS011;4248;48.196;10.924;2023-07-13T05:00:39;12.77;;;5.00;;
8421;SDS011;4248;48.196;10.924;2023-07-13T05:03:04;9.87;;;4.90;;
8421;SDS011;4248;48.196;10.924;2023-07-13T05:05:30;8.87;;;5.00;;
8421;SDS011;4248;48.196;10.924;2023-07-13T05:07:56;8.77;;;5.00;;
8421;SDS011;4248;48.196;10.924;2023-07-13T05:10:22;9.97;;;4.80;;
8421;SDS011;4248;48.196;10.924;2023-07-13T05:12:48;9.90;;;4.47;;
8421;SDS011;4248;48.196;10.924;2023-07-13T05:15:14;10.63;;;4.90;;
8421;SDS011;4248;48.196;10.924;2023-07-13T05:17:40;8.43;;;4.77;;
8421;SDS011;4248;48.196;10.924;2023-07-13T05:20:06;10.50;;;4.00;;
8421;SDS011;4248;48.196;10.924;2023-07-13T05:22:33;8.83;;;4.17;;
8421;SDS011;4248;48.196;10.924;2023-07-13T05:25:00;11.63;;;4.37;;
8421;SDS011;4248;48.196;10.924;2023-07-13T05:27:26;6.93;;;4.30;;
8421;SDS011;4248;48.196;10.924;2023-07-13T05:29:52;8.60;;;4.57;;
8421;SDS011;4248;48.196;10.924;2023-07-13T05:32:18;8.70;;;3.70;;
8421;SDS011;4248;48.196;10.924;2023-07-13T05:34:43;9.03;;;4.53;;
8421;SDS011;4248;48.196;10.924;2023-07-13T05:37:09;9.37;;;3.93;;
8421;SDS011;4248;48.196;10.924;2023-07-13T05:39:35;9.03;;;3.90;;
8421;SDS011;4248;48.196;10.924;2023-07-13T05:42:01;8.67;;;3.97;;
8421;SDS011;4248;48.196;10.924;2023-07-13T05:44:27;10.43;;;4.03;;
8421;SDS011;4248;48.196;10.924;2023-07-13T05:46:52;16.77;;;4.50;;
8421;SDS011;4248;48.196;10.924;2023-07-13T05:49:19;5.63;;;3.47;;
8421;SDS011;4248;48.196;10.924;2023-07-13T05:51:45;5.70;;;3.70;;
8421;SDS011;4248;48.196;10.924;2023-07-13T05:54:11;6.30;;;3.93;;
8421;SDS011;4248;48.196;10.924;2023-07-13T05:56:36;6.50;;;3.90;;
8421;SDS011;4248;48.196;10.924;2023-07-13T05:59:02;11.17;;;3.70;;
8421;SDS011;4248;48.196;10.924;2023-07-13T06:01:29;10.47;;;3.50;;
8421;SDS011;4248;48.196;10.924;2023-07-13T06:03:55;7.57;;;3.50;;
8421;SDS011;4248;48.196;10.924;2023-07-13T06:06:21;11.43;;;3.30;;
8421;SDS011;4248;48.196;10.924;2023-07-13T06:08:47;14.70;;;3.77;;
8421;SDS011;4248;48.196;10.924;2023-07-13T06:11:17;10.33;;;3.70;;
8421;SDS011;4248;48.196;10.924;2023-07-13T06:13:44;9.20;;;3.67;;
8421;SDS011;4248;48.196;10.924;2023-07-13T06:16:11;12.50;;;3.73;;
8421;SDS011;4248;48.196;10.924;2023-07-13T06:18:37;7.87;;;3.00;;
8421;SDS011;4248;48.196;10.924;2023-07-13T06:21:08;7.87;;;3.47;;
8421;SDS011;4248;48.196;10.924;2023-07-13T06:23:35;6.17;;;2.90;;
8421;SDS011;4248;48.196;10.924;2023-07-13T06:26:01;9.93;;;3.07;;
8421;SDS011;4248;48.196;10.924;2023-07-13T06:28:28;6.53;;;3.23;;
8421;SDS011;4248;48.196;10.924;2023-07-13T06:30:53;9.57;;;3.23;;
8421;SDS011;4248;48.196;10.924;2023-07-13T06:33:19;9.20;;;3.37;;
8421;SDS011;4248;48.196;10.924;2023-07-13T06:35:44;11.57;;;3.00;;
8421;SDS011;4248;48.196;10.924;2023-07-13T06:38:10;12.17;;;3.43;;
8421;SDS011;4248;48.196;10.924;2023-07-13T06:40:35;7.40;;;2.60;;
8421;SDS011;4248;48.196;10.924;2023-07-13T06:43:01;7.97;;;3.27;;
8421;SDS011;4248;48.196;10.924;2023-07-13T06:45:26;5.57;;;2.67;;
8421;SDS011;4248;48.196;10.924;2023-07-13T06:47:52;6.23;;;2.27;;
8421;SDS011;4248;48.196;10.924;2023-07-13T06:50:17;7.37;;;2.57;;
8421;SDS011;4248;48.196;10.924;2023-07-13T06:52:43;8.33;;;2.20;;
8421;SDS011;4248;48.196;10.924;2023-07-13T06:55:09;4.90;;;2.67;;
8421;SDS011;4248;48.196;10.924;2023-07-13T06:57:34;5.33;;;2.40;;
8421;SDS011;4248;48.196;10.924;2023-07-13T07:00:00;7.50;;;2.60;;
8421;SDS011;4248;48.196;10.924;2023-07-13T07:02:25;12.87;;;2.93;;
8421;SDS011;4248;48.196;10.924;2023-07-13T07:04:51;6.50;;;2.53;;
8421;SDS011;4248;48.196;10.924;2023-07-13T07:07:16;9.37;;;2.80;;
8421;SDS011;4248;48.196;10.924;2023-07-13T07:09:42;4.80;;;2.47;;
8421;SDS011;4248;48.196;10.924;2023-07-13T07:12:07;12.90;;;3.17;;
8421;SDS011;4248;48.196;10.924;2023-07-13T07:14:33;7.77;;;2.53;;
8421;SDS011;4248;48.196;10.924;2023-07-13T07:16:59;8.10;;;3.40;;
8421;SDS011;4248;48.196;10.924;2023-07-13T07:19:25;8.37;;;2.93;;
8421;SDS011;4248;48.196;10.924;2023-07-13T07:21:51;12.53;;;2.73;;
8421;SDS011;4248;48.196;10.924;2023-07-13T07:24:16;10.50;;;2.40;;
8421;SDS011;4248;48.196;10.924;2023-07-13T07:26:42;9.67;;;2.73;;
8421;SDS011;4248;48.196;10.924;2023-07-13T07:29:07;9.73;;;2.73;;
8421;SDS011;4248;48.196;10.924;2023-07-13T07:31:33;14.27;;;3.00;;
8421;SDS011;4248;48.196;10.924;2023-07-13T07:33:59;9.13;;;2.60;;
8421;SDS011;4248;48.196;10.924;2023-07-13T07:36:25;5.60;;;2.20;;
8421;SDS011;4248;48.196;10.924;2023-07-13T07:38:50;7.00;;;2.50;;
8421;SDS011;4248;48.196;10.924;2023-07-13T07:41:16;7.73;;;2.70;;
8421;SDS011;4248;48.196;10.924;2023-07-13T07:43:41;10.43;;;2.10;;
8421;SDS011;4248;48.196;10.924;2023-07-13T07:46:07;9.27;;;2.00;;
8421;SDS011;4248;48.196;10.924;2023-07-13T07:48:32;8.90;;;2.30;;
8421;SDS011;4248;48.196;10.924;2023-07-13T07:50:58;9.70;;;2.17;;
8421;SDS011;4248;48.196;10.924;2023-07-13T07:53:23;7.67;;;2.10;;
8421;SDS011;4248;48.196;10.924;2023-07-13T07:55:49;6.23;;;2.13;;
8421;SDS011;4248;48.196;10.924;2023-07-13T07:58:15;5.30;;;1.80;;
8421;SDS011;4248;48.196;10.924;2023-07-13T08:00:40;7.43;;;2.30;;
8421;SDS011;4248;48.196;10.924;2023-07-13T08:03:06;13.97;;;2.23;;
8421;SDS011;4248;48.196;10.924;2023-07-13T08:05:32;6.53;;;2.20;;
8421;SDS011;4248;48.196;10.924;2023-07-13T08:08:01;5.20;;;1.93;;
8421;SDS011;4248;48.196;10.924;2023-07-13T08:10:26;5.97;;;2.13;;
8421;SDS011;4248;48.196;10.924;2023-07-13T08:12:52;6.80;;;1.93;;
8421;SDS011;4248;48.196;10.924;2023-07-13T08:15:17;6.23;;;2.10;;
8421;SDS011;4248;48.196;10.924;2023-07-13T08:17:45;12.80;;;3.00;;
8421;SDS011;4248;48.196;10.924;2023-07-13T08:20:11;6.70;;;2.10;;
8421;SDS011;4248;48.196;10.924;2023-07-13T08:22:37;4.80;;;2.10;;
8421;SDS011;4248;48.196;10.924;2023-07-13T08:25:03;7.37;;;2.17;;
8421;SDS011;4248;48.196;10.924;2023-07-13T08:27:29;5.30;;;2.10;;
8421;SDS011;4248;48.196;10.924;2023-07-13T08:29:54;7.93;;;2.20;;
8421;SDS011;4248;48.196;10.924;2023-07-13T08:32:20;7.50;;;2.23;;
8421;SDS011;4248;48.196;10.924;2023-07-13T08:34:47;5.87;;;2.10;;
8421;SDS011;4248;48.196;10.924;2023-07-13T08:37:14;12.40;;;2.10;;
8421;SDS011;4248;48.196;10.924;2023-07-13T08:39:40;8.50;;;2.50;;
8421;SDS011;4248;48.196;10.924;2023-07-13T08:44:56;6.10;;;2.13;;
8421;SDS011;4248;48.196;10.924;2023-07-13T08:47:22;5.77;;;2.23;;
8421;SDS011;4248;48.196;10.924;2023-07-13T08:49:49;6.83;;;2.43;;
8421;SDS011;4248;48.196;10.924;2023-07-13T08:52:26;5.40;;;2.07;;
8421;SDS011;4248;48.196;10.924;2023-07-13T08:54:57;6.80;;;1.90;;
8421;SDS011;4248;48.196;10.924;2023-07-13T08:57:31;4.40;;;2.30;;
8421;SDS011;4248;48.196;10.924;2023-07-13T08:59:58;4.20;;;1.93;;
8421;SDS011;4248;48.196;10.924;2023-07-13T09:18:30;5.70;;;2.07;;
8421;SDS011;4248;48.196;10.924;2023-07-13T09:21:07;4.67;;;1.87;;
8421;SDS011;4248;48.196;10.924;2023-07-13T09:23:34;11.07;;;2.27;;
8421;SDS011;4248;48.196;10.924;2023-07-13T09:26:05;6.60;;;2.27;;
8421;SDS011;4248;48.196;10.924;2023-07-13T09:28:43;4.23;;;2.37;;
8421;SDS011;4248;48.196;10.924;2023-07-13T09:33:59;6.53;;;2.43;;
8421;SDS011;4248;48.196;10.924;2023-07-13T09:36:26;8.10;;;2.37;;
8421;SDS011;4248;48.196;10.924;2023-07-13T09:41:37;5.83;;;2.53;;
8421;SDS011;4248;48.196;10.924;2023-07-13T09:44:12;7.87;;;2.27;;
8421;SDS011;4248;48.196;10.924;2023-07-13T09:46:58;6.23;;;2.00;;
8421;SDS011;4248;48.196;10.924;2023-07-13T09:49:25;9.83;;;2.40;;
8421;SDS011;4248;48.196;10.924;2023-07-13T09:51:57;6.97;;;1.93;;
8421;SDS011;4248;48.196;10.924;2023-07-13T09:54:35;12.93;;;2.10;;
8421;SDS011;4248;48.196;10.924;2023-07-13T09:57:02;6.10;;;2.50;;
8421;SDS011;4248;48.196;10.924;2023-07-13T09:59:40;6.17;;;2.07;;
8421;SDS011;4248;48.196;10.924;2023-07-13T10:05:05;9.90;;;2.73;;
8421;SDS011;4248;48.196;10.924;2023-07-13T10:07:38;7.03;;;2.33;;
8421;SDS011;4248;48.196;10.924;2023-07-13T10:10:13;6.97;;;1.60;;
8421;SDS011;4248;48.196;10.924;2023-07-13T10:12:40;6.93;;;1.80;;
8421;SDS011;4248;48.196;10.924;2023-07-13T10:15:07;5.17;;;1.77;;
8421;SDS011;4248;48.196;10.924;2023-07-13T10:17:38;7.23;;;1.90;;
8421;SDS011;4248;48.196;10.924;2023-07-13T10:20:05;6.07;;;1.83;;
8421;SDS011;4248;48.196;10.924;2023-07-13T10:22:39;7.97;;;1.80;;
8421;SDS011;4248;48.196;10.924;2023-07-13T10:25:20;5.57;;;1.80;;
8421;SDS011;4248;48.196;10.924;2023-07-13T10:27:52;7.17;;;2.20;;
8421;SDS011;4248;48.196;10.924;2023-07-13T10:30:23;6.40;;;1.70;;
8421;SDS011;4248;48.196;10.924;2023-07-13T10:32:57;5.33;;;1.77;;
8421;SDS011;4248;48.196;10.924;2023-07-13T10:35:24;7.20;;;2.13;;
8421;SDS011;4248;48.196;10.924;2023-07-13T10:38:02;6.83;;;1.53;;
8421;SDS011;4248;48.196;10.924;2023-07-13T10:40:33;5.03;;;1.90;;
8421;SDS011;4248;48.196;10.924;2023-07-13T10:43:04;6.40;;;2.03;;
8421;SDS011;4248;48.196;10.924;2023-07-13T10:45:38;6.20;;;1.63;;
8421;SDS011;4248;48.196;10.924;2023-07-13T10:48:05;6.80;;;1.80;;
8421;SDS011;4248;48.196;10.924;2023-07-13T10:50:41;6.27;;;1.93;;
8421;SDS011;4248;48.196;10.924;2023-07-13T10:53:18;6.43;;;1.70;;
8421;SDS011;4248;48.196;10.924;2023-07-13T10:55:55;5.53;;;2.00;;
8421;SDS011;4248;48.196;10.924;2023-07-13T11:01:14;9.03;;;2.23;;
8421;SDS011;4248;48.196;10.924;2023-07-13T11:03:54;8.03;;;2.10;;
8421;SDS011;4248;48.196;10.924;2023-07-13T11:08:59;7.83;;;2.00;;
8421;SDS011;4248;48.196;10.924;2023-07-13T11:11:56;4.60;;;2.03;;
8421;SDS011;4248;48.196;10.924;2023-07-13T11:14:28;4.60;;;1.67;;
8421;SDS011;4248;48.196;10.924;2023-07-13T11:17:24;11.73;;;2.10;;
8421;SDS011;4248;48.196;10.924;2023-07-13T11:19:52;12.20;;;2.20;;
8421;SDS011;4248;48.196;10.924;2023-07-13T11:22:22;5.93;;;2.13;;
8421;SDS011;4248;48.196;10.924;2023-07-13T11:38:17;4.13;;;1.83;;
8421;SDS011;4248;48.196;10.924;2023-07-13T11:40:46;9.53;;;2.10;;
8421;SDS011;4248;48.196;10.924;2023-07-13T11:43:16;8.10;;;1.70;;
8421;SDS011;4248;48.196;10.924;2023-07-13T11:45:43;4.50;;;1.80;;
8421;SDS011;4248;48.196;10.924;2023-07-13T11:48:28;5.90;;;2.17;;
8421;SDS011;4248;48.196;10.924;2023-07-13T11:50:57;9.53;;;2.37;;
8421;SDS011;4248;48.196;10.924;2023-07-13T11:53:28;6.63;;;2.10;;
8421;SDS011;4248;48.196;10.924;2023-07-13T11:55:57;5.03;;;2.20;;
8421;SDS011;4248;48.196;10.924;2023-07-13T11:58:24;8.40;;;2.17;;
8421;SDS011;4248;48.196;10.924;2023-07-13T12:00:50;4.00;;;1.70;;
8421;SDS011;4248;48.196;10.924;2023-07-13T12:03:20;5.67;;;1.97;;
8421;SDS011;4248;48.196;10.924;2023-07-13T12:06:06;8.40;;;1.90;;
8421;SDS011;4248;48.196;10.924;2023-07-13T12:08:55;4.47;;;1.80;;
8421;SDS011;4248;48.196;10.924;2023-07-13T12:11:22;4.77;;;1.90;;
8421;SDS011;4248;48.196;10.924;2023-07-13T12:13:47;6.23;;;1.70;;
8421;SDS011;4248;48.196;10.924;2023-07-13T12:16:25;9.07;;;1.70;;
8421;SDS011;4248;48.196;10.924;2023-07-13T12:18:57;8.03;;;1.97;;
8421;SDS011;4248;48.196;10.924;2023-07-13T12:21:32;3.77;;;1.50;;
8421;SDS011;4248;48.196;10.924;2023-07-13T12:23:59;7.47;;;1.60;;
8421;SDS011;4248;48.196;10.924;2023-07-13T12:26:27;9.03;;;1.60;;
8421;SDS011;4248;48.196;10.924;2023-07-13T12:28:54;5.57;;;1.57;;
8421;SDS011;4248;48.196;10.924;2023-07-13T12:34:02;3.73;;;1.70;;
8421;SDS011;4248;48.196;10.924;2023-07-13T12:36:33;6.77;;;1.73;;
8421;SDS011;4248;48.196;10.924;2023-07-13T12:39:03;8.03;;;1.80;;
8421;SDS011;4248;48.196;10.924;2023-07-13T12:41:37;6.10;;;2.10;;
8421;SDS011;4248;48.196;10.924;2023-07-13T12:44:04;4.70;;;1.80;;
8421;SDS011;4248;48.196;10.924;2023-07-13T12:46:34;4.17;;;1.50;;
8421;SDS011;4248;48.196;10.924;2023-07-13T12:49:00;7.10;;;1.60;;
8421;SDS011;4248;48.196;10.924;2023-07-13T12:51:26;5.20;;;1.60;;
8421;SDS011;4248;48.196;10.924;2023-07-13T12:53:57;3.70;;;1.70;;
8421;SDS011;4248;48.196;10.924;2023-07-13T12:56:30;5.57;;;1.73;;
8421;SDS011;4248;48.196;10.924;2023-07-13T12:58:59;6.00;;;1.90;;
8421;SDS011;4248;48.196;10.924;2023-07-13T13:01:28;4.60;;;1.50;;
8421;SDS011;4248;48.196;10.924;2023-07-13T13:03:54;4.30;;;1.70;;
8421;SDS011;4248;48.196;10.924;2023-07-13T13:06:23;9.93;;;1.93;;
8421;SDS011;4248;48.196;10.924;2023-07-13T13:08:52;5.57;;;1.87;;
8421;SDS011;4248;48.196;10.924;2023-07-13T13:11:20;5.63;;;1.67;;
8421;SDS011;4248;48.196;10.924;2023-07-13T13:13:48;7.83;;;2.27;;
8421;SDS011;4248;48.196;10.924;2023-07-13T13:16:17;5.50;;;2.00;;
8421;SDS011;4248;48.196;10.924;2023-07-13T13:18:48;7.23;;;1.83;;
8421;SDS011;4248;48.196;10.924;2023-07-13T13:21:15;5.50;;;1.60;;
8421;SDS011;4248;48.196;10.924;2023-07-13T13:23:41;4.93;;;1.50;;
8421;SDS011;4248;48.196;10.924;2023-07-13T13:26:12;9.70;;;1.80;;
8421;SDS011;4248;48.196;10.924;2023-07-13T13:28:40;7.13;;;1.90;;
8421;SDS011;4248;48.196;10.924;2023-07-13T13:31:07;3.00;;;1.37;;
8421;SDS011;4248;48.196;10.924;2023-07-13T13:33:37;3.80;;;1.50;;
8421;SDS011;4248;48.196;10.924;2023-07-13T13:36:09;4.40;;;1.67;;
8421;SDS011;4248;48.196;10.924;2023-07-13T13:38:38;8.70;;;2.20;;
8421;SDS011;4248;48.196;10.924;2023-07-13T13:41:05;6.13;;;1.70;;
8421;SDS011;4248;48.196;10.924;2023-07-13T13:43:31;5.70;;;2.10;;
8421;SDS011;4248;48.196;10.924;2023-07-13T13:45:57;5.57;;;1.80;;
8421;SDS011;4248;48.196;10.924;2023-07-13T13:48:31;5.23;;;1.40;;
8421;SDS011;4248;48.196;10.924;2023-07-13T13:50:59;8.67;;;1.80;;
8421;SDS011;4248;48.196;10.924;2023-07-13T13:53:26;5.63;;;1.90;;
8421;SDS011;4248;48.196;10.924;2023-07-13T13:55:52;5.77;;;2.10;;
8421;SDS011;4248;48.196;10.924;2023-07-13T13:58:18;8.43;;;1.63;;
8421;SDS011;4248;48.196;10.924;2023-07-13T14:00:44;8.47;;;2.40;;
8421;SDS011;4248;48.196;10.924;2023-07-13T14:03:20;5.50;;;1.90;;
8421;SDS011;4248;48.196;10.924;2023-07-13T14:05:47;7.60;;;1.70;;
8421;SDS011;4248;48.196;10.924;2023-07-13T14:08:18;5.70;;;1.87;;
8421;SDS011;4248;48.196;10.924;2023-07-13T14:10:45;5.40;;;1.93;;
8421;SDS011;4248;48.196;10.924;2023-07-13T14:13:16;5.73;;;1.93;;
8421;SDS011;4248;48.196;10.924;2023-07-13T14:15:45;8.17;;;2.37;;
8421;SDS011;4248;48.196;10.924;2023-07-13T14:18:10;5.83;;;2.00;;
8421;SDS011;4248;48.196;10.924;2023-07-13T14:20:36;4.47;;;2.20;;
8421;SDS011;4248;48.196;10.924;2023-07-13T14:23:02;8.07;;;1.87;;
8421;SDS011;4248;48.196;10.924;2023-07-13T14:25:28;5.13;;;2.00;;
8421;SDS011;4248;48.196;10.924;2023-07-13T14:27:55;7.00;;;2.00;;
8421;SDS011;4248;48.196;10.924;2023-07-13T14:30:24;6.37;;;2.13;;
8421;SDS011;4248;48.196;10.924;2023-07-13T14:32:50;6.30;;;2.10;;
8421;SDS011;4248;48.196;10.924;2023-07-13T14:35:17;6.03;;;2.20;;
8421;SDS011;4248;48.196;10.924;2023-07-13T14:37:45;5.13;;;1.80;;
8421;SDS011;4248;48.196;10.924;2023-07-13T14:42:50;7.10;;;2.03;;
8421;SDS011;4248;48.196;10.924;2023-07-13T14:45:16;6.40;;;2.00;;
8421;SDS011;4248;48.196;10.924;2023-07-13T14:47:44;5.97;;;1.93;;
8421;SDS011;4248;48.196;10.924;2023-07-13T14:50:20;8.03;;;2.00;;
8421;SDS011;4248;48.196;10.924;2023-07-13T14:52:49;4.50;;;1.77;;
8421;SDS011;4248;48.196;10.924;2023-07-13T14:55:16;6.30;;;2.00;;
8421;SDS011;4248;48.196;10.924;2023-07-13T14:57:43;5.77;;;1.80;;
8421;SDS011;4248;48.196;10.924;2023-07-13T15:00:14;5.60;;;1.97;;
8421;SDS011;4248;48.196;10.924;2023-07-13T15:02:42;6.40;;;2.10;;
8421;SDS011;4248;48.196;10.924;2023-07-13T15:05:16;6.83;;;1.80;;
8421;SDS011;4248;48.196;10.924;2023-07-13T15:07:44;6.33;;;2.00;;
8421;SDS011;4248;48.196;10.924;2023-07-13T15:12:46;11.33;;;1.97;;
8421;SDS011;4248;48.196;10.924;2023-07-13T15:15:12;4.80;;;1.80;;
8421;SDS011;4248;48.196;10.924;2023-07-13T15:17:42;5.67;;;1.90;;
8421;SDS011;4248;48.196;10.924;2023-07-13T15:20:18;7.80;;;2.00;;
8421;SDS011;4248;48.196;10.924;2023-07-13T15:22:44;7.43;;;2.30;;
8421;SDS011;4248;48.196;10.924;2023-07-13T15:25:19;8.23;;;1.83;;
8421;SDS011;4248;48.196;10.924;2023-07-13T15:27:49;9.47;;;1.70;;
8421;SDS011;4248;48.196;10.924;2023-07-13T15:30:16;8.63;;;2.10;;
8421;SDS011;4248;48.196;10.924;2023-07-13T15:32:42;5.43;;;2.10;;
8421;SDS011;4248;48.196;10.924;2023-07-13T15:35:30;11.80;;;2.13;;
8421;SDS011;4248;48.196;10.924;2023-07-13T15:37:54;5.67;;;1.70;;
8421;SDS011;4248;48.196;10.924;2023-07-13T15:40:20;10.20;;;2.20;;
8421;SDS011;4248;48.196;10.924;2023-07-13T15:42:49;8.40;;;2.43;;
8421;SDS011;4248;48.196;10.924;2023-07-13T15:47:45;5.53;;;2.03;;
8421;SDS011;4248;48.196;10.924;2023-07-13T15:50:12;3.87;;;1.70;;
8421;SDS011;4248;48.196;10.924;2023-07-13T15:52:39;4.80;;;1.60;;
8421;SDS011;4248;48.196;10.924;2023-07-13T15:55:09;4.90;;;1.80;;
8421;SDS011;4248;48.196;10.924;2023-07-13T15:57:36;4.50;;;2.10;;
8421;SDS011;4248;48.196;10.924;2023-07-13T16:00:02;10.13;;;2.10;;
8421;SDS011;4248;48.196;10.924;2023-07-13T16:02:30;4.60;;;1.80;;
8421;SDS011;4248;48.196;10.924;2023-07-13T16:04:56;4.63;;;1.80;;
8421;SDS011;4248;48.196;10.924;2023-07-13T16:07:22;5.80;;;1.87;;